Time;durP1;ratioP1;P1;durP2;ratioP2;P2;SDS_P1;SDS_P2;PMS_P1;PMS_P2;Temp;Humidity;BMP_temperature;BMP_pressure;BME280_temperature;BME280_humidity;BME280_pressure;Samples;Min_cycle;Max_cycle;Signal;HPM_P1;HPM_P2
2022/12/27 00:00:13;;;;;;;7.32;1.98;;;;;;;2.53;100.00;100933.28;6236223;28;20037;-87
2022/12/27 00:03:15;;;;;;;10.45;1.70;;;;;;;2.51;100.00;100929.94;6235811;28;20053;-87
2022/12/27 00:06:21;;;;;;;3.95;2.05;;;;;;;2.60;100.00;100919.38;6237134;28;20555;-87
2022/12/27 00:09:23;;;;;;;3.78;1.42;;;;;;;2.58;100.00;100927.13;6224717;28;20123;-87
2022/12/27 00:12:25;;;;;;;6.93;1.50;;;;;;;2.58;100.00;100926.28;6212047;28;20060;-87
2022/12/27 00:15:27;;;;;;;6.28;1.33;;;;;;;2.57;100.00;100922.88;6235517;28;20102;-87
2022/12/27 00:18:29;;;;;;;4.63;1.63;;;;;;;2.48;100.00;100928.34;6234522;28;20045;-86
2022/12/27 00:21:30;;;;;;;5.63;1.73;;;;;;;2.51;100.00;100929.94;6234142;28;20072;-87
2022/12/27 00:24:34;;;;;;;4.05;1.25;;;;;;;2.47;100.00;100934.34;6237251;28;20038;-87
2022/12/27 00:27:36;;;;;;;7.78;2.05;;;;;;;2.50;100.00;100929.13;6235807;28;20037;-87
2022/12/27 00:30:38;;;;;;;7.00;1.40;;;;;;;2.39;100.00;100923.63;6235626;28;20487;-87
2022/12/27 00:33:41;;;;;;;1.75;1.30;;;;;;;2.34;100.00;100925.50;6218860;28;20404;-87
2022/12/27 00:36:43;;;;;;;3.42;1.30;;;;;;;2.36;100.00;100918.59;6218224;28;20061;-87
2022/12/27 00:39:44;;;;;;;5.85;1.80;;;;;;;2.37;100.00;100926.22;6236250;28;20044;-87
2022/12/27 00:42:46;;;;;;;2.53;1.42;;;;;;;2.52;100.00;100923.97;6215468;28;20056;-87
2022/12/27 00:45:48;;;;;;;3.63;1.60;;;;;;;2.61;100.00;100930.44;6237004;28;20037;-87
2022/12/27 00:48:50;;;;;;;7.15;1.77;;;;;;;2.71;100.00;100936.88;6234264;28;20061;-87
2022/12/27 00:51:52;;;;;;;4.50;1.60;;;;;;;2.93;100.00;100958.13;6218657;28;20045;-87
2022/12/27 00:54:54;;;;;;;6.05;1.83;;;;;;;3.13;100.00;100976.91;6235082;28;20057;-87
2022/12/27 00:57:55;;;;;;;7.00;2.45;;;;;;;3.27;100.00;100961.00;6235047;28;20041;-87
2022/12/27 01:01:07;;;;;;;4.97;2.08;;;;;;;3.27;100.00;100956.72;6233307;28;20539;-87
2022/12/27 01:04:12;;;;;;;5.70;2.00;;;;;;;3.10;100.00;100959.97;6236305;28;20549;-87
2022/12/27 01:07:14;;;;;;;7.80;2.25;;;;;;;2.79;100.00;100955.28;6234815;28;20052;-86
2022/12/27 01:10:16;;;;;;;7.18;2.20;;;;;;;2.65;100.00;100973.69;6235151;28;20045;-86
2022/12/27 01:13:18;;;;;;;6.40;2.30;;;;;;;2.56;100.00;100974.06;6234553;28;20518;-86
2022/12/27 01:16:21;;;;;;;7.88;2.17;;;;;;;2.41;100.00;100979.75;6215311;28;20434;-86
2022/12/27 01:19:23;;;;;;;7.70;2.53;;;;;;;2.34;100.00;100982.53;6235073;28;20509;-86
2022/12/27 01:22:25;;;;;;;10.10;3.40;;;;;;;2.45;100.00;100989.78;6233213;28;20096;-86
2022/12/27 01:25:26;;;;;;;5.63;2.60;;;;;;;2.52;100.00;100993.78;6234536;28;20045;-86
2022/12/27 01:28:28;;;;;;;8.30;3.22;;;;;;;2.52;100.00;100986.13;6235012;28;20038;-86
2022/12/27 01:31:32;;;;;;;6.32;2.80;;;;;;;2.40;100.00;100986.56;6216280;28;20037;-87
2022/12/27 01:34:34;;;;;;;7.50;2.47;;;;;;;2.25;100.00;100982.88;6215759;28;20048;-86
2022/12/27 01:37:35;;;;;;;8.85;2.95;;;;;;;2.39;100.00;100976.44;6234227;28;20056;-86
2022/12/27 01:40:37;;;;;;;8.27;3.88;;;;;;;2.39;100.00;100979.00;6233569;28;20056;-86
2022/12/27 01:43:39;;;;;;;6.25;2.70;;;;;;;2.29;100.00;100981.88;6235805;28;20049;-86
2022/12/27 01:46:40;;;;;;;5.07;2.60;;;;;;;2.24;100.00;100978.66;6239914;28;20064;-87
2022/12/27 01:50:08;;;;;;;6.88;3.03;;;;;;;2.28;100.00;100985.31;6220493;28;20065;-87
2022/12/27 01:53:44;;;;;;;7.07;2.70;;;;;;;2.29;100.00;100989.53;6235923;28;20048;-87
2022/12/27 01:56:49;;;;;;;6.40;2.70;;;;;;;2.25;100.00;100989.72;6126604;29;20059;-87
2022/12/27 01:59:51;;;;;;;7.13;2.88;;;;;;;2.33;100.00;101003.84;6123463;29;20090;-87
2022/12/27 02:02:53;;;;;;;8.18;2.47;;;;;;;2.59;100.00;101007.16;6128332;29;20577;-87
2022/12/27 02:05:56;;;;;;;8.93;2.70;;;;;;;2.66;100.00;101003.50;6126129;29;20051;-86
2022/12/27 02:09:04;;;;;;;7.38;3.25;;;;;;;2.71;100.00;101009.25;6127786;29;20051;-87
2022/12/27 02:12:07;;;;;;;5.95;2.53;;;;;;;2.63;100.00;101016.38;6132167;29;20055;-86
2022/12/27 02:15:09;;;;;;;9.02;2.72;;;;;;;2.65;100.00;101006.09;6117830;29;20055;-87
2022/12/27 02:18:11;;;;;;;5.72;2.72;;;;;;;2.56;100.00;101000.44;6127273;29;20043;-87
2022/12/27 02:21:28;;;;;;;3.92;2.60;;;;;;;2.41;100.00;101012.94;6133464;29;20051;-86
2022/12/27 02:24:56;;;;;;;5.30;2.85;;;;;;;2.25;100.00;101020.34;6122440;29;20156;-87
2022/12/27 02:28:12;;;;;;;9.00;3.00;;;;;;;2.21;100.00;101008.56;6043990;29;20534;-87
2022/12/27 02:31:21;;;;;;;10.05;2.55;;;;;;;2.24;100.00;101016.16;6062762;28;20060;-87
2022/12/27 02:35:01;;;;;;;6.55;2.58;;;;;;;2.36;100.00;101021.63;6126363;28;20047;-87
2022/12/27 02:38:23;;;;;;;8.10;3.13;;;;;;;2.49;100.00;101023.75;6142436;28;20062;-86
2022/12/27 02:57:07;;;;;;;8.02;2.70;;;;;;;2.56;100.00;101022.63;6140185;28;20047;-86
2022/12/27 02:59:34;;;;;;;7.88;2.97;;;;;;;2.55;100.00;101016.66;6139891;28;20055;-87
2022/12/27 03:03:28;;;;;;;4.18;2.45;;;;;;;2.31;100.00;101007.34;6142918;28;20516;-87
2022/12/27 03:06:44;;;;;;;5.78;2.83;;;;;;;2.23;100.00;101014.47;6230053;28;20049;-87
2022/12/27 03:17:14;;;;;;;7.90;2.83;;;;;;;2.30;100.00;101019.28;6230482;28;20502;-87
2022/12/27 03:27:09;;;;;;;7.72;2.90;;;;;;;2.34;100.00;101028.53;6236000;28;20112;-87
2022/12/27 03:33:35;;;;;;;5.82;2.88;;;;;;;2.42;100.00;101005.25;6237824;28;20045;-86
2022/12/27 03:40:16;;;;;;;10.13;3.38;;;;;;;2.50;100.00;101012.63;6229631;28;20083;-87
2022/12/27 03:43:18;;;;;;;7.68;3.15;;;;;;;2.44;100.00;101029.00;6228657;28;20188;-86
2022/12/27 03:46:34;;;;;;;11.50;3.58;;;;;;;2.45;100.00;101029.84;6215639;28;20503;-86
2022/12/27 03:49:49;;;;;;;13.43;3.78;;;;;;;2.46;100.00;101028.94;6226624;28;20395;-86
2022/12/27 03:53:24;;;;;;;10.57;3.45;;;;;;;2.60;100.00;101021.59;6218930;28;20519;-87
2022/12/27 03:56:27;;;;;;;11.65;4.72;;;;;;;2.46;100.00;101023.84;6131583;28;20089;-86
2022/12/27 03:59:30;;;;;;;8.23;3.70;;;;;;;2.48;100.00;101032.28;6136455;28;20055;-87
2022/12/27 04:02:32;;;;;;;4.30;3.55;;;;;;;2.47;100.00;101026.34;6123666;28;20670;-87
2022/12/27 04:05:34;;;;;;;7.95;3.53;;;;;;;2.39;100.00;101035.19;6118051;29;20043;-86
2022/12/27 04:35:21;;;;;;;8.65;4.88;;;;;;;2.92;100.00;101051.03;6219672;28;20050;-86
2022/12/27 04:38:23;;;;;;;11.07;4.88;;;;;;;2.92;100.00;101045.94;6235964;28;20171;-86
2022/12/27 04:54:56;;;;;;;12.68;5.75;;;;;;;3.36;100.00;101056.13;6226603;28;20069;-86
2022/12/27 04:57:58;;;;;;;9.18;5.20;;;;;;;3.51;100.00;101059.81;6202035;28;20049;-86
2022/12/27 05:04:24;;;;;;;10.38;4.85;;;;;;;3.55;100.00;101050.25;6235517;28;20056;-87
2022/12/27 05:14:13;;;;;;;8.55;4.90;;;;;;;3.55;100.00;101055.38;6235322;28;20038;-86
2022/12/27 05:17:14;;;;;;;10.70;5.25;;;;;;;3.50;100.00;101055.56;6233392;28;20053;-86
2022/12/27 05:20:16;;;;;;;7.80;5.50;;;;;;;3.41;100.00;101053.41;6240405;28;20045;-86
2022/12/27 05:26:38;;;;;;;8.05;5.32;;;;;;;3.49;100.00;101059.03;6237874;28;20048;-86
2022/12/27 05:29:40;;;;;;;8.15;5.05;;;;;;;3.52;100.00;101071.69;6234282;28;20034;-86
2022/12/27 05:32:42;;;;;;;12.15;5.88;;;;;;;3.66;100.00;101081.38;6239389;28;20045;-86
2022/12/27 05:35:43;;;;;;;9.05;5.55;;;;;;;3.76;100.00;101057.06;6220855;28;20090;-86
2022/12/27 05:38:45;;;;;;;11.70;5.78;;;;;;;3.72;100.00;101060.63;6222000;28;20049;-87
2022/12/27 05:41:47;;;;;;;9.38;5.53;;;;;;;3.69;100.00;101068.44;6236472;28;20042;-87
2022/12/27 05:44:49;;;;;;;12.20;6.65;;;;;;;3.70;100.00;101079.50;6238465;28;20496;-87
2022/12/27 05:47:50;;;;;;;11.73;5.95;;;;;;;3.66;100.00;101084.75;6230060;28;20048;-87
2022/12/27 05:50:52;;;;;;;7.10;5.50;;;;;;;3.62;100.00;101079.81;6209426;28;20514;-86
2022/12/27 05:53:57;;;;;;;12.48;7.10;;;;;;;3.40;100.00;101090.94;6232485;28;20537;-87
2022/12/27 05:56:58;;;;;;;13.60;5.68;;;;;;;3.42;100.00;101091.69;6215473;28;20050;-86
2022/12/27 06:00:00;;;;;;;11.73;5.80;;;;;;;3.54;100.00;101113.41;6228964;28;20047;-86
2022/12/27 06:03:12;;;;;;;12.13;5.80;;;;;;;3.65;100.00;101107.84;6232580;28;20418;-86
2022/12/27 06:06:14;;;;;;;7.22;5.43;;;;;;;3.71;100.00;101117.03;6220187;28;20584;-86
2022/12/27 06:09:16;;;;;;;12.45;5.93;;;;;;;3.76;100.00;101115.13;6217528;28;20045;-87
2022/12/27 06:12:17;;;;;;;7.90;5.97;;;;;;;3.78;100.00;101118.44;6221626;28;20483;-86
2022/12/27 06:15:19;;;;;;;9.55;5.78;;;;;;;3.79;100.00;101126.06;6239759;28;20487;-86
2022/12/27 06:18:20;;;;;;;10.45;6.13;;;;;;;3.67;100.00;101121.44;6218047;28;20037;-86
2022/12/27 06:21:22;;;;;;;13.60;6.50;;;;;;;3.71;100.00;101124.72;6239209;28;20074;-87
2022/12/27 06:24:24;;;;;;;10.40;6.28;;;;;;;3.79;100.00;101125.22;6227665;28;20061;-86
2022/12/27 06:27:25;;;;;;;9.15;5.68;;;;;;;3.76;100.00;101133.88;6232290;28;20041;-86
2022/12/27 06:30:27;;;;;;;9.95;6.40;;;;;;;3.66;100.00;101133.41;6238685;28;20049;-86
2022/12/27 06:33:36;;;;;;;8.27;6.07;;;;;;;3.70;100.00;101140.94;6232698;28;20076;-86
2022/12/27 06:36:38;;;;;;;9.95;6.13;;;;;;;3.83;100.00;101132.72;6223757;28;20415;-86
2022/12/27 06:39:39;;;;;;;8.55;5.72;;;;;;;3.79;100.00;101131.16;6239849;28;20060;-86
2022/12/27 06:42:41;;;;;;;11.43;5.97;;;;;;;3.57;100.00;101128.66;6238606;28;20045;-86
2022/12/27 06:45:43;;;;;;;9.07;6.40;;;;;;;3.60;100.00;101145.59;6238774;28;20395;-86
2022/12/27 06:48:46;;;;;;;16.15;7.95;;;;;;;3.65;100.00;101157.34;6233092;28;20491;-86
2022/12/27 06:51:48;;;;;;;9.73;6.07;;;;;;;3.71;100.00;101163.13;6229123;28;20053;-86
2022/12/27 06:54:59;;;;;;;11.88;6.38;;;;;;;3.76;100.00;101158.63;6217378;28;20045;-86
2022/12/27 06:58:01;;;;;;;11.75;6.78;;;;;;;3.71;100.00;101151.16;6228244;28;20049;-86
2022/12/27 07:01:08;;;;;;;9.98;5.95;;;;;;;3.56;100.00;101151.75;6210678;28;20522;-86
2022/12/27 07:04:11;;;;;;;10.57;6.50;;;;;;;3.47;100.00;101168.28;6236969;28;20112;-86
2022/12/27 07:07:12;;;;;;;9.63;6.50;;;;;;;3.52;100.00;101174.06;6214510;28;20034;-86
2022/12/27 07:10:17;;;;;;;6.93;5.45;;;;;;;3.44;100.00;101160.75;6220936;28;20080;-86
2022/12/27 07:13:18;;;;;;;7.32;5.43;;;;;;;3.43;100.00;101162.47;6220190;28;20039;-86
2022/12/27 07:16:23;;;;;;;8.65;5.78;;;;;;;3.44;100.00;101187.16;6232476;28;20053;-86
2022/12/27 07:19:25;;;;;;;8.18;5.50;;;;;;;3.47;100.00;101186.22;6227733;28;20050;-86
2022/12/27 07:22:28;;;;;;;8.65;5.40;;;;;;;3.46;100.00;101189.69;6237330;28;20491;-87
2022/12/27 07:25:31;;;;;;;8.40;5.53;;;;;;;3.54;100.00;101185.09;6235887;28;20049;-87
2022/12/27 07:28:32;;;;;;;11.38;4.53;;;;;;;3.64;100.00;101208.59;6236582;28;20049;-87
2022/12/27 07:31:34;;;;;;;8.95;5.22;;;;;;;3.79;100.00;101200.31;6218019;28;20068;-86
2022/12/27 07:34:36;;;;;;;14.20;5.32;;;;;;;3.86;100.00;101231.63;6235099;28;20047;-86
2022/12/27 07:37:37;;;;;;;9.57;4.72;;;;;;;3.91;100.00;101221.22;6234301;28;20041;-86
2022/12/27 07:40:39;;;;;;;10.98;5.15;;;;;;;3.95;100.00;101228.72;6209344;28;20415;-87
2022/12/27 07:43:43;;;;;;;8.57;4.70;;;;;;;3.94;100.00;101234.72;6231158;28;20116;-87
2022/12/27 07:46:44;;;;;;;7.10;4.22;;;;;;;3.98;100.00;101241.41;6228052;28;20093;-87
2022/12/27 07:49:46;;;;;;;7.05;4.50;;;;;;;4.03;100.00;101247.16;6230457;28;20050;-87
2022/12/27 07:52:48;;;;;;;9.38;4.32;;;;;;;3.96;100.00;101242.34;6236457;28;20030;-87
2022/12/27 07:55:50;;;;;;;14.73;5.20;;;;;;;3.96;100.00;101248.31;6235916;28;20037;-86
2022/12/27 07:58:53;;;;;;;8.55;4.03;;;;;;;3.86;100.00;101240.16;6236714;28;20533;-86
2022/12/27 08:02:03;;;;;;;11.27;4.43;;;;;;;3.95;100.00;101249.22;6225833;28;20044;-87
2022/12/27 08:05:05;;;;;;;5.82;3.60;;;;;;;4.04;100.00;101248.81;6225057;28;20041;-87
2022/12/27 08:08:08;;;;;;;7.68;3.55;;;;;;;4.07;100.00;101250.44;6231876;28;20057;-87
2022/12/27 08:11:10;;;;;;;8.65;4.43;;;;;;;4.06;100.00;101259.84;6236389;28;20045;-87
2022/12/27 08:14:11;;;;;;;6.57;4.13;;;;;;;4.08;100.00;101262.34;6235496;28;20243;-87
2022/12/27 08:17:19;;;;;;;8.48;4.50;;;;;;;4.14;100.00;101262.09;6236444;28;20572;-87
2022/12/27 08:20:21;;;;;;;8.85;3.92;;;;;;;4.21;100.00;101257.56;6235785;28;20076;-87
2022/12/27 08:23:23;;;;;;;10.40;4.10;;;;;;;4.21;100.00;101262.69;6235442;28;20037;-87
2022/12/27 08:26:27;;;;;;;9.48;3.90;;;;;;;4.12;100.00;101263.88;6235940;28;20566;-86
2022/12/27 08:29:30;;;;;;;8.70;4.00;;;;;;;3.97;100.00;101257.63;6218033;28;20047;-87
2022/12/27 08:32:33;;;;;;;5.95;4.07;;;;;;;3.85;100.00;101253.84;6235449;28;20042;-87
2022/12/27 08:35:43;;;;;;;9.45;4.05;;;;;;;3.84;100.00;101261.59;6218878;28;20042;-87
2022/12/27 08:38:54;;;;;;;8.75;3.67;;;;;;;3.79;100.00;101279.69;6225744;28;20063;-87
2022/12/27 08:41:56;;;;;;;7.88;3.72;;;;;;;3.91;100.00;101280.94;6227108;28;20512;-87
2022/12/27 08:44:58;;;;;;;10.63;5.85;;;;;;;3.98;100.00;101284.94;6228693;28;20399;-88
2022/12/27 08:48:00;;;;;;;4.45;3.60;;;;;;;4.01;100.00;101291.66;6235579;28;20045;-87
2022/12/27 08:51:04;;;;;;;10.43;4.03;;;;;;;4.02;100.00;101289.03;6218272;28;20049;-87
2022/12/27 08:54:13;;;;;;;6.68;3.53;;;;;;;3.93;100.00;101301.38;6241612;28;20074;-87
2022/12/27 08:57:15;;;;;;;7.57;3.70;;;;;;;4.01;100.00;101318.13;6244485;28;20399;-88
2022/12/27 09:00:17;;;;;;;5.13;3.45;;;;;;;4.04;100.00;101312.03;6239466;28;20045;-87
2022/12/27 09:03:20;;;;;;;6.60;3.70;;;;;;;4.01;100.00;101323.22;6225044;28;20042;-87
2022/12/27 09:06:23;;;;;;;8.80;3.53;;;;;;;3.99;100.00;101319.91;6226556;28;20049;-87
2022/12/27 09:09:25;;;;;;;8.85;3.70;;;;;;;4.03;100.00;101318.88;6224291;28;20123;-87
2022/12/27 09:12:26;;;;;;;8.30;3.90;;;;;;;4.08;100.00;101322.09;6225610;28;20044;-87
2022/12/27 09:15:28;;;;;;;6.43;3.38;;;;;;;4.06;100.00;101331.56;6225695;28;20033;-87
2022/12/27 09:18:30;;;;;;;9.55;3.78;;;;;;;4.02;100.00;101331.75;6234442;28;20052;-87
2022/12/27 09:21:33;;;;;;;9.43;3.60;;;;;;;4.10;100.00;101338.25;6242728;28;20212;-87
2022/12/27 09:24:34;;;;;;;5.82;3.78;;;;;;;4.15;100.00;101332.97;6242040;28;20436;-87
2022/12/27 09:27:37;;;;;;;9.68;3.58;;;;;;;4.09;100.00;101331.44;6241604;28;20568;-87
2022/12/27 09:30:38;;;;;;;10.00;3.67;;;;;;;4.19;100.00;101331.09;6217291;28;20243;-87
2022/12/27 09:33:40;;;;;;;8.65;3.28;;;;;;;4.36;100.00;101330.44;6217510;28;20494;-87
2022/12/27 09:36:42;;;;;;;8.48;3.47;;;;;;;4.41;100.00;101337.03;6243728;28;20048;-87
2022/12/27 09:39:44;;;;;;;9.20;3.42;;;;;;;4.42;100.00;101340.44;6238217;28;20046;-87
2022/12/27 09:43:06;;;;;;;7.13;3.58;;;;;;;4.44;100.00;101354.03;6240481;28;20072;-87
2022/12/27 09:46:45;;;;;;;8.20;3.78;;;;;;;4.46;100.00;101349.66;6239820;28;20176;-87
2022/12/27 09:50:09;;;;;;;6.85;3.60;;;;;;;4.49;100.00;101350.38;6231160;28;20037;-87
2022/12/27 09:53:38;;;;;;;8.05;3.38;;;;;;;4.56;100.00;101356.09;6225455;28;20056;-87
2022/12/27 09:56:41;;;;;;;8.77;3.57;;;;;;;4.64;100.00;101350.66;6230384;28;20038;-87
2022/12/27 10:00:13;;;;;;;8.77;3.75;;;;;;;4.77;100.00;101364.66;6224809;28;20124;-87
2022/12/27 10:03:18;;;;;;;9.82;3.40;;;;;;;4.89;100.00;101369.25;6224374;28;20810;-86
2022/12/27 10:06:47;;;;;;;6.25;3.10;;;;;;;4.84;100.00;101358.34;6206640;28;20052;-87
2022/12/27 10:10:34;;;;;;;7.60;3.17;;;;;;;4.91;100.00;101357.19;6223905;28;20045;-87
2022/12/27 10:13:55;;;;;;;11.30;3.30;;;;;;;4.87;100.00;101360.81;6138083;28;20108;-87
2022/12/27 10:17:03;;;;;;;7.15;3.30;;;;;;;4.95;100.00;101363.06;6141364;28;20429;-87
2022/12/27 10:20:30;;;;;;;5.68;3.25;;;;;;;5.08;100.00;101374.47;6137358;28;20066;-87
2022/12/27 10:23:36;;;;;;;4.00;2.60;;;;;;;5.26;100.00;101359.16;6138377;28;20047;-87
2022/12/27 10:26:38;;;;;;;7.45;3.88;;;;;;;5.33;100.00;101360.56;6141191;28;20046;-87
2022/12/27 10:29:42;;;;;;;5.30;3.22;;;;;;;5.55;100.00;101360.47;6142978;28;20055;-86
2022/12/27 10:32:44;;;;;;;10.02;3.13;;;;;;;5.73;100.00;101364.75;6141433;28;20046;-87
2022/12/27 10:35:47;;;;;;;8.70;3.47;;;;;;;5.55;100.00;101374.13;6140500;28;20051;-85
2022/12/27 10:38:49;;;;;;;6.40;2.90;;;;;;;5.14;100.00;101378.47;6148547;28;20353;-84
2022/12/27 10:42:18;;;;;;;10.35;3.63;;;;;;;4.89;100.00;101373.56;6142925;28;20039;-86
2022/12/27 10:45:41;;;;;;;9.07;3.03;;;;;;;4.67;100.00;101376.16;6140984;28;20149;-85
2022/12/27 10:49:24;;;;;;;6.97;3.38;;;;;;;4.52;100.00;101403.25;6150903;28;20047;-86
2022/12/27 10:52:33;;;;;;;8.63;3.67;;;;;;;4.39;100.00;101399.50;6134201;29;20065;-83
2022/12/27 10:55:37;;;;;;;8.43;3.10;;;;;;;4.18;100.00;101412.25;6134247;29;20501;-84
2022/12/27 10:58:50;;;;;;;5.82;2.95;;;;;;;4.01;100.00;101394.97;6114196;29;20704;-85
2022/12/27 11:02:00;;;;;;;8.93;3.43;;;;;;;3.74;100.00;101416.47;6135423;29;20055;-86
2022/12/27 11:05:03;;;;;;;6.25;3.10;;;;;;;3.62;100.00;101418.56;6134158;28;20341;-87
2022/12/27 11:08:23;;;;;;;6.60;3.17;;;;;;;3.73;100.00;101432.72;6136246;29;20075;-88
2022/12/27 11:11:28;;;;;;;6.97;3.42;;;;;;;3.80;100.00;101431.59;6137191;28;20062;-89
2022/12/27 11:14:30;;;;;;;12.07;4.20;;;;;;;3.81;100.00;101431.56;6134586;28;20501;-89
2022/12/27 11:17:32;;;;;;;16.52;4.78;;;;;;;3.72;100.00;101434.44;6134530;29;20121;-89
2022/12/27 11:20:46;;;;;;;10.52;3.70;;;;;;;3.71;100.00;101421.72;6135072;29;20043;-90
2022/12/27 11:23:57;;;;;;;6.15;3.80;;;;;;;3.65;100.00;101423.59;6133954;29;20058;-90
2022/12/27 11:26:59;;;;;;;8.00;3.25;;;;;;;3.66;100.00;101425.25;6103501;28;20047;-90
2022/12/27 11:30:01;;;;;;;9.73;4.43;;;;;;;3.77;100.00;101413.78;6209848;28;20045;-91
2022/12/27 11:33:17;;;;;;;6.45;3.20;;;;;;;3.84;100.00;101405.00;6223216;28;20069;-91
2022/12/27 11:36:37;;;;;;;12.38;3.65;;;;;;;3.99;100.00;101424.91;6212546;28;20095;-91
2022/12/27 11:39:52;;;;;;;8.30;3.70;;;;;;;3.98;100.00;101407.88;6216747;28;20052;-92
2022/12/27 11:43:04;;;;;;;7.70;3.80;;;;;;;3.92;100.00;101402.16;6222626;28;20042;-91
2022/12/27 11:46:36;;;;;;;6.78;3.40;;;;;;;3.85;100.00;101406.66;6227840;28;20084;-91
2022/12/27 11:50:04;;;;;;;7.57;3.60;;;;;;;3.95;100.00;101418.25;6204498;28;20396;-91
2022/12/27 11:53:25;;;;;;;8.65;3.55;;;;;;;4.02;100.00;101417.09;6132641;29;20047;-92
2022/12/27 11:56:29;;;;;;;8.77;3.20;;;;;;;4.13;100.00;101419.28;6133146;29;20051;-92
2022/12/27 11:59:52;;;;;;;8.82;3.25;;;;;;;4.20;100.00;101412.19;6131435;29;20458;-91
2022/12/27 12:03:48;;;;;;;7.88;2.92;;;;;;;4.28;100.00;101410.19;6132997;29;20043;-91
2022/12/27 12:07:18;;;;;;;8.93;3.38;;;;;;;4.38;100.00;101411.50;6056582;29;20523;-91
2022/12/27 12:11:07;;;;;;;11.43;4.30;;;;;;;4.48;100.00;101404.28;6062598;29;20071;-91
2022/12/27 12:14:50;;;;;;;10.57;3.78;;;;;;;4.86;100.00;101404.47;5996280;29;20066;-91
2022/12/27 12:18:04;;;;;;;7.45;3.53;;;;;;;5.04;100.00;101405.44;5990798;29;20068;-91
2022/12/27 12:22:03;;;;;;;8.23;4.20;;;;;;;5.23;100.00;101396.06;5992479;29;20121;-92
2022/12/27 12:25:32;;;;;;;8.90;4.03;;;;;;;5.20;100.00;101411.59;5929623;29;20547;-91
2022/12/27 12:29:08;;;;;;;7.15;3.42;;;;;;;5.12;100.00;101408.53;5931943;29;20541;-90
2022/12/27 12:32:26;;;;;;;8.93;3.88;;;;;;;5.05;100.00;101414.81;5971739;29;20798;-90
2022/12/27 12:35:46;;;;;;;10.80;4.28;;;;;;;5.11;100.00;101409.41;5978549;29;20443;-90
2022/12/27 12:39:03;;;;;;;8.48;4.10;;;;;;;5.15;100.00;101413.53;5970264;29;20056;-90
2022/12/27 12:42:28;;;;;;;9.38;3.95;;;;;;;5.31;100.00;101419.66;6057280;29;20052;-90
2022/12/27 12:45:59;;;;;;;7.72;3.17;;;;;;;5.43;100.00;101413.19;6048844;29;20053;-90
2022/12/27 12:49:39;;;;;;;7.25;3.08;;;;;;;5.42;100.00;101413.28;5995406;29;20210;-89
2022/12/27 12:53:06;;;;;;;8.48;3.90;;;;;;;5.48;100.00;101413.81;6017292;29;20069;-89
2022/12/27 12:56:20;;;;;;;12.93;3.35;;;;;;;5.53;100.00;101408.47;6084372;29;20052;-90
2022/12/27 12:59:40;;;;;;;9.50;3.55;;;;;;;5.63;100.00;101402.03;6110277;29;20519;-89
2022/12/27 13:03:15;;;;;;;8.85;3.80;;;;;;;5.52;100.00;101411.97;6111709;29;20145;-89
2022/12/27 13:06:53;;;;;;;8.57;3.70;;;;;;;5.35;100.00;101384.44;6111280;29;20124;-89
2022/12/27 13:10:12;;;;;;;8.30;3.92;;;;;;;5.25;100.00;101391.72;6087504;29;20163;-88
2022/12/27 13:13:25;;;;;;;6.20;3.65;;;;;;;5.24;100.00;101384.91;6088434;29;20087;-88
2022/12/27 13:16:52;;;;;;;8.35;3.90;;;;;;;5.19;100.00;101379.13;6088576;29;20108;-88
2022/12/27 13:20:06;;;;;;;4.43;3.40;;;;;;;5.19;100.00;101381.69;6086493;29;20079;-88
2022/12/27 13:23:12;;;;;;;6.10;3.33;;;;;;;5.10;100.00;101382.94;6087113;29;20048;-88
2022/12/27 13:26:35;;;;;;;7.03;3.50;;;;;;;5.03;100.00;101378.13;6117774;28;20635;-88
2022/12/27 13:29:42;;;;;;;4.80;3.40;;;;;;;4.93;100.00;101375.09;6132743;28;20054;-88
2022/12/27 13:33:04;;;;;;;5.85;3.83;;;;;;;4.90;100.00;101373.50;6133808;28;20047;-88
2022/12/27 13:36:23;;;;;;;5.53;3.50;;;;;;;4.84;100.00;101378.03;6131537;29;20095;-88
2022/12/27 13:39:31;;;;;;;5.22;3.88;;;;;;;4.78;100.00;101384.25;6136890;28;20066;-87
2022/12/27 13:42:45;;;;;;;4.65;3.17;;;;;;;4.69;100.00;101371.81;6123104;28;20094;-87
2022/12/27 13:46:03;;;;;;;6.05;3.65;;;;;;;4.70;100.00;101376.06;6154654;28;20045;-87
2022/12/27 13:49:23;;;;;;;6.22;3.88;;;;;;;4.70;100.00;101371.75;6234380;28;20037;-87
2022/12/27 13:52:43;;;;;;;6.63;4.13;;;;;;;4.63;100.00;101369.50;6224740;28;20105;-87
2022/12/27 13:56:04;;;;;;;9.57;4.43;;;;;;;4.58;100.00;101376.56;6224697;28;20034;-87
2022/12/27 14:00:07;;;;;;;8.05;4.10;;;;;;;4.50;100.00;101376.88;6224749;28;20113;-87
2022/12/27 14:03:37;;;;;;;8.35;4.50;;;;;;;4.48;100.00;101369.22;6230459;28;20079;-87
2022/12/27 14:07:08;;;;;;;6.40;5.10;;;;;;;4.45;100.00;101359.09;6227609;28;20077;-87
2022/12/27 14:10:24;;;;;;;7.80;4.97;;;;;;;4.38;100.00;101360.22;6212691;28;20049;-87
2022/12/27 14:13:33;;;;;;;8.65;5.13;;;;;;;4.34;100.00;101368.94;6232560;28;20052;-87
2022/12/27 14:16:50;;;;;;;8.65;5.20;;;;;;;4.32;100.00;101366.44;6239171;28;20431;-86
2022/12/27 14:20:20;;;;;;;12.20;5.70;;;;;;;4.35;100.00;101354.38;6238522;28;20423;-87
2022/12/27 14:23:41;;;;;;;10.63;5.40;;;;;;;4.19;100.00;101343.91;6234476;28;20124;-86
2022/12/27 14:26:52;;;;;;;10.80;6.20;;;;;;;4.07;100.00;101348.63;6201344;28;20582;-86
2022/12/27 14:30:22;;;;;;;8.80;6.55;;;;;;;3.98;100.00;101343.84;6228996;28;20282;-86
2022/12/27 14:34:05;;;;;;;8.38;6.05;;;;;;;3.93;100.00;101343.19;6227652;28;20431;-86
2022/12/27 14:37:37;;;;;;;10.18;6.60;;;;;;;3.76;100.00;101348.13;6232966;28;20044;-86
2022/12/27 14:41:08;;;;;;;12.73;7.43;;;;;;;3.71;100.00;101357.69;6235203;28;20495;-86
2022/12/27 14:44:44;;;;;;;11.23;7.45;;;;;;;3.63;100.00;101348.56;6232490;28;20042;-86
2022/12/27 14:48:04;;;;;;;13.82;7.63;;;;;;;3.55;100.00;101355.69;6227021;28;20041;-86
2022/12/27 14:51:49;;;;;;;13.55;7.88;;;;;;;3.51;100.00;101358.44;6234175;28;20422;-86
2022/12/27 14:55:36;;;;;;;15.27;8.10;;;;;;;3.43;100.00;101356.16;6229211;28;20037;-86
2022/12/27 14:59:00;;;;;;;12.00;7.55;;;;;;;3.35;100.00;101353.00;6226214;28;20632;-86
2022/12/27 15:02:26;;;;;;;10.93;7.65;;;;;;;3.19;100.00;101351.00;6227281;28;20054;-86
2022/12/27 15:05:43;;;;;;;12.25;8.00;;;;;;;3.18;100.00;101361.25;6224405;28;20050;-86
2022/12/27 15:09:19;;;;;;;11.52;7.25;;;;;;;3.07;100.00;101355.69;6223815;28;20500;-86
2022/12/27 15:12:36;;;;;;;14.27;7.50;;;;;;;2.96;100.00;101363.75;6237121;28;20049;-86
2022/12/27 15:16:03;;;;;;;15.57;7.35;;;;;;;2.89;100.00;101362.28;6237884;28;20053;-86
2022/12/27 15:19:25;;;;;;;12.48;6.97;;;;;;;2.84;100.00;101382.88;6235853;28;20502;-86
2022/12/27 15:23:05;;;;;;;10.95;7.15;;;;;;;2.80;100.00;101383.84;6237781;28;20176;-86
2022/12/27 15:26:21;;;;;;;11.80;6.70;;;;;;;2.78;100.00;101383.91;6234437;28;20053;-86
2022/12/27 15:29:26;;;;;;;12.45;6.45;;;;;;;2.75;100.00;101391.66;6232814;28;20491;-86
2022/12/27 15:32:50;;;;;;;11.68;6.60;;;;;;;2.69;100.00;101386.78;6229417;28;20049;-86
2022/12/27 15:36:08;;;;;;;9.85;6.90;;;;;;;2.62;100.00;101390.41;6207960;28;20533;-86
2022/12/27 15:39:44;;;;;;;14.52;8.05;;;;;;;2.54;100.00;101402.59;6219207;28;20460;-86
2022/12/27 15:42:55;;;;;;;12.95;7.45;;;;;;;2.46;100.00;101394.31;6225101;28;20428;-86
2022/12/27 15:46:24;;;;;;;14.38;7.53;;;;;;;2.39;100.00;101392.84;6217077;28;20037;-86
2022/12/27 15:49:49;;;;;;;13.20;8.07;;;;;;;2.34;100.00;101396.38;6222401;28;20049;-86
2022/12/27 15:53:09;;;;;;;15.10;8.13;;;;;;;2.35;100.00;101392.94;6223184;28;20034;-86
2022/12/27 15:56:41;;;;;;;11.20;7.37;;;;;;;2.45;100.00;101390.09;6222058;28;20057;-86
2022/12/27 15:59:47;;;;;;;13.60;7.93;;;;;;;2.48;100.00;101395.09;6223082;28;20296;-86
2022/12/27 16:02:49;;;;;;;11.90;8.60;;;;;;;2.48;100.00;101385.72;6228696;28;20049;-86
2022/12/27 16:05:52;;;;;;;12.73;8.40;;;;;;;2.49;100.00;101387.41;6228045;28;20511;-86
2022/12/27 16:09:25;;;;;;;12.68;8.07;;;;;;;2.57;100.00;101389.72;6230050;28;20041;-87
2022/12/27 16:12:39;;;;;;;17.30;8.48;;;;;;;2.57;100.00;101394.81;6234266;28;20041;-86
2022/12/27 16:15:46;;;;;;;15.98;8.70;;;;;;;2.57;100.00;101384.59;6231873;28;20033;-87